createdAt,value
2018-05-29T00:00:08.101Z,101598.31
2018-05-29T00:02:37.218Z,101597.52
2018-05-29T00:05:06.298Z,101595.19
2018-05-29T00:07:34.636Z,101602.69
2018-05-29T00:10:02.951Z,101604.16
2018-05-29T00:12:32.763Z,101602.82
2018-05-29T00:15:01.081Z,101599.50
2018-05-29T00:17:29.380Z,101599.75
2018-05-29T00:19:57.685Z,101602.39
2018-05-29T00:22:26.983Z,101598.94
2018-05-29T00:24:55.359Z,101595.67
2018-05-29T00:27:23.671Z,101595.98
2018-05-29T00:29:53.150Z,101580.91
2018-05-29T00:32:21.453Z,101579.80
2018-05-29T00:34:50.529Z,101582.33
2018-05-29T00:37:20.370Z,101577.84
2018-05-29T00:39:49.705Z,101572.97
2018-05-29T00:42:18.343Z,101575.39
2018-05-29T00:44:47.476Z,101572.14
2018-05-29T00:47:15.776Z,101571.80
2018-05-29T00:49:44.698Z,101573.77
2018-05-29T00:52:14.600Z,101569.52
2018-05-29T00:54:43.390Z,101573.89
2018-05-29T00:57:11.711Z,101565.61
2018-05-29T00:59:40.971Z,101568.69
2018-05-29T01:02:10.034Z,101565.17
2018-05-29T01:04:38.649Z,101564.23
2018-05-29T01:07:07.241Z,101563.06
2018-05-29T01:09:35.764Z,101557.99
2018-05-29T01:12:04.830Z,101566.01
2018-05-29T01:14:33.975Z,101556.69
2018-05-29T01:17:03.029Z,101562.48
2018-05-29T01:19:31.340Z,101559.33
2018-05-29T01:22:00.899Z,101556.14
2018-05-29T01:24:29.429Z,101557.58
2018-05-29T01:26:57.801Z,101556.22
2018-05-29T01:29:27.970Z,101550.33
2018-05-29T01:31:57.121Z,101545.83
2018-05-29T01:34:29.609Z,101547.23
2018-05-29T01:36:58.742Z,101542.33
2018-05-29T01:39:27.152Z,101541.11
2018-05-29T01:41:55.959Z,101534.48
2018-05-29T01:44:25.057Z,101529.92
2018-05-29T01:46:54.136Z,101525.27
2018-05-29T01:49:22.425Z,101518.84
2018-05-29T01:51:51.599Z,101516.09
2018-05-29T01:54:19.974Z,101513.49
2018-05-29T01:56:48.900Z,101504.63
2018-05-29T01:59:18.856Z,101508.63
2018-05-29T02:01:50.457Z,101503.47
2018-05-29T02:04:19.694Z,101504.06
2018-05-29T02:06:47.993Z,101505.17
2018-05-29T02:09:16.465Z,101501.98
2018-05-29T02:11:44.887Z,101512.78
2018-05-29T02:14:13.194Z,101503.06
2018-05-29T02:16:42.522Z,101505.39
2018-05-29T02:19:12.364Z,101498.55
2018-05-29T02:21:43.110Z,101498.91
2018-05-29T02:24:11.904Z,101503.53
2018-05-29T02:26:40.564Z,101500.38
2018-05-29T02:29:10.089Z,101492.41
2018-05-29T02:31:38.604Z,101502.03
2018-05-29T02:34:07.675Z,101505.20
2018-05-29T02:36:35.976Z,101502.95
2018-05-29T02:39:05.071Z,101507.36
2018-05-29T02:41:33.884Z,101505.19
2018-05-29T02:44:03.496Z,101505.77
2018-05-29T02:46:32.565Z,101511.68
2018-05-29T02:49:01.137Z,101506.33
2018-05-29T02:51:30.323Z,101506.82
2018-05-29T02:53:58.621Z,101509.71
2018-05-29T02:56:28.044Z,101513.33
2018-05-29T02:58:57.314Z,101517.36
2018-05-29T03:01:25.628Z,101515.61
2018-05-29T03:03:54.716Z,101514.95
2018-05-29T03:06:24.620Z,101520.14
2018-05-29T03:08:53.045Z,101514.72
2018-05-29T03:11:21.888Z,101513.02
2018-05-29T03:13:53.565Z,101511.45
2018-05-29T03:16:22.644Z,101513.52
2018-05-29T03:25:41.142Z,101518.31
2018-05-29T03:28:10.250Z,101520.30
2018-05-29T03:30:38.864Z,101512.49
2018-05-29T03:33:07.762Z,101518.00
2018-05-29T03:35:36.061Z,101520.16
2018-05-29T03:38:04.395Z,101522.58
2018-05-29T03:40:34.581Z,101527.17
2018-05-29T03:43:02.873Z,101528.81
2018-05-29T03:45:32.845Z,101536.14
2018-05-29T03:48:01.137Z,101529.13
2018-05-29T03:50:29.973Z,101526.59
2018-05-29T03:52:59.517Z,101534.30
2018-05-29T03:55:27.814Z,101536.71
2018-05-29T03:57:56.114Z,101540.62
2018-05-29T04:00:24.479Z,101545.95
2018-05-29T04:02:54.436Z,101543.31
2018-05-29T04:05:24.490Z,101546.09
2018-05-29T04:07:53.613Z,101545.68
2018-05-29T04:10:22.042Z,101546.11
2018-05-29T04:12:51.984Z,101547.42
2018-05-29T04:15:21.946Z,101551.11
2018-05-29T04:17:51.124Z,101550.42
2018-05-29T04:20:20.641Z,101553.03
2018-05-29T04:22:48.949Z,101551.49
2018-05-29T04:25:18.064Z,101560.62
2018-05-29T04:27:47.239Z,101564.47
2018-05-29T04:30:16.327Z,101555.91
2018-05-29T04:32:45.305Z,101565.59
2018-05-29T04:35:13.922Z,101567.30
2018-05-29T04:37:43.011Z,101570.27
2018-05-29T04:40:11.564Z,101568.16
2018-05-29T04:42:39.879Z,101563.78
2018-05-29T04:45:09.114Z,101561.72
2018-05-29T04:47:38.523Z,101562.87
2018-05-29T04:50:06.842Z,101560.49
2018-05-29T04:52:35.161Z,101561.87
2018-05-29T04:55:03.475Z,101560.46
2018-05-29T04:57:32.290Z,101560.60
2018-05-29T05:00:02.014Z,101566.20
2018-05-29T05:02:31.437Z,101562.70
2018-05-29T05:05:01.372Z,101563.91
2018-05-29T05:07:29.788Z,101558.39
2018-05-29T05:09:59.263Z,101561.63
2018-05-29T05:12:29.526Z,101562.31
2018-05-29T05:14:58.642Z,101561.70
2018-05-29T05:17:27.349Z,101563.89
2018-05-29T05:19:56.763Z,101564.61
2018-05-29T05:22:26.270Z,101555.67
2018-05-29T05:24:55.425Z,101559.06
2018-05-29T05:27:25.441Z,101550.33
2018-05-29T05:29:54.293Z,101550.70
2018-05-29T05:32:22.614Z,101551.53
2018-05-29T05:34:51.267Z,101549.72
2018-05-29T05:37:19.674Z,101544.64
2018-05-29T05:39:47.973Z,101548.80
2018-05-29T05:42:16.933Z,101547.48
2018-05-29T05:44:45.262Z,101544.80
2018-05-29T05:47:14.942Z,101546.36
2018-05-29T05:49:43.790Z,101547.84
2018-05-29T05:52:12.697Z,101551.67
2018-05-29T05:54:41.714Z,101556.90
2018-05-29T05:57:10.771Z,101547.38
2018-05-29T05:59:40.218Z,101550.63
2018-05-29T06:02:09.355Z,101555.91
2018-05-29T06:04:40.037Z,101560.08
2018-05-29T06:07:08.751Z,101558.24
2018-05-29T06:09:38.433Z,101545.08
2018-05-29T06:12:06.862Z,101546.03
2018-05-29T06:14:35.924Z,101550.45
2018-05-29T06:17:04.234Z,101551.31
2018-05-29T06:19:33.879Z,101546.00
2018-05-29T06:22:02.948Z,101550.33
2018-05-29T06:24:32.429Z,101553.70
2018-05-29T06:27:02.645Z,101555.27
2018-05-29T06:29:31.362Z,101558.77
2018-05-29T06:32:01.521Z,101556.84
2018-05-29T06:34:29.856Z,101555.73
2018-05-29T06:36:58.611Z,101550.31
2018-05-29T06:39:28.515Z,101550.30
2018-05-29T06:41:59.056Z,101553.02
2018-05-29T06:44:27.482Z,101546.13
2018-05-29T06:46:58.203Z,101551.68
2018-05-29T06:49:26.677Z,101552.04
2018-05-29T06:51:55.923Z,101543.58
2018-05-29T06:54:25.945Z,101549.59
2018-05-29T06:56:54.792Z,101542.58
2018-05-29T06:59:23.903Z,101535.89
2018-05-29T07:01:53.112Z,101532.84
2018-05-29T07:04:21.435Z,101530.30
2018-05-29T07:06:49.814Z,101523.78
2018-05-29T07:09:29.981Z,101522.14
2018-05-29T07:11:58.460Z,101526.23
2018-05-29T07:14:27.700Z,101520.88
2018-05-29T07:16:56.763Z,101529.02
2018-05-29T07:19:25.121Z,101523.45
2018-05-29T07:21:53.441Z,101527.58
2018-05-29T07:24:24.041Z,101526.95
2018-05-29T07:26:53.718Z,101529.81
2018-05-29T07:29:22.018Z,101523.05
2018-05-29T07:31:51.287Z,101527.05
2018-05-29T07:34:20.929Z,101515.16
2018-05-29T07:36:49.461Z,101520.92
2018-05-29T07:39:18.920Z,101514.19
2018-05-29T07:41:47.316Z,101520.76
2018-05-29T07:44:16.240Z,101511.42
2018-05-29T07:46:45.323Z,101512.69
2018-05-29T07:49:13.979Z,101511.87
2018-05-29T07:51:42.379Z,101510.28
2018-05-29T07:54:11.317Z,101510.38
2018-05-29T07:56:39.752Z,101515.14
2018-05-29T07:59:08.818Z,101509.28
2018-05-29T08:01:37.425Z,101504.41
2018-05-29T08:04:05.856Z,101512.96
2018-05-29T08:06:34.352Z,101503.67
2018-05-29T08:09:03.213Z,101495.97
2018-05-29T08:11:33.096Z,101501.78
2018-05-29T08:14:02.598Z,101495.52
2018-05-29T08:16:31.142Z,101497.55
2018-05-29T08:19:00.118Z,101491.84
2018-05-29T08:21:29.915Z,101491.23
2018-05-29T08:23:58.644Z,101481.20
2018-05-29T08:26:27.694Z,101485.52
2018-05-29T08:28:56.060Z,101480.84
2018-05-29T08:31:24.990Z,101478.71
2018-05-29T08:33:54.079Z,101483.45
2018-05-29T08:36:23.265Z,101478.42
2018-05-29T08:38:52.342Z,101477.07
2018-05-29T08:41:21.400Z,101471.29
2018-05-29T08:43:49.835Z,101467.25
2018-05-29T08:46:18.472Z,101469.47
2018-05-29T08:48:47.311Z,101461.08
2018-05-29T08:51:15.713Z,101456.98
2018-05-29T08:53:44.784Z,101462.23
2018-05-29T08:56:14.381Z,101456.86
2018-05-29T08:58:43.472Z,101466.25
2018-05-29T09:01:12.374Z,101453.61
2018-05-29T09:03:41.777Z,101459.64
2018-05-29T09:06:10.899Z,101454.41
2018-05-29T09:08:40.645Z,101454.91
2018-05-29T09:11:09.036Z,101455.91
2018-05-29T09:13:37.453Z,101454.70
2018-05-29T09:16:07.102Z,101449.84
2018-05-29T09:18:36.183Z,101449.72
2018-05-29T09:21:05.887Z,101442.34
2018-05-29T09:23:35.785Z,101445.64
2018-05-29T09:26:04.162Z,101439.23
2018-05-29T09:28:32.568Z,101434.02
2018-05-29T09:31:01.791Z,101433.81
2018-05-29T09:33:30.471Z,101430.24
2018-05-29T09:35:59.507Z,101435.58
2018-05-29T09:38:28.214Z,101424.25
2018-05-29T09:40:56.512Z,101429.49
2018-05-29T09:43:26.477Z,101422.45
2018-05-29T09:45:54.981Z,101419.13
2018-05-29T09:48:24.059Z,101417.39
2018-05-29T09:50:52.320Z,101408.77
2018-05-29T09:53:21.046Z,101415.67
2018-05-29T09:55:49.753Z,101412.86
2018-05-29T09:58:18.950Z,101410.03
2018-05-29T10:00:49.689Z,101409.37
2018-05-29T10:03:18.511Z,101407.33
2018-05-29T10:05:46.827Z,101410.63
2018-05-29T10:08:16.448Z,101397.06
2018-05-29T10:10:45.114Z,101400.25
2018-05-29T10:13:13.445Z,101396.16
2018-05-29T10:15:43.659Z,101396.43
2018-05-29T10:18:12.557Z,101395.40
2018-05-29T10:20:42.665Z,101389.05
2018-05-29T10:23:10.966Z,101378.61
2018-05-29T10:25:39.394Z,101375.94
2018-05-29T10:28:07.880Z,101377.70
2018-05-29T10:30:36.895Z,101381.38
2018-05-29T10:33:06.842Z,101370.45
2018-05-29T10:35:35.925Z,101369.05
2018-05-29T10:38:05.014Z,101367.10
2018-05-29T10:40:34.281Z,101363.16
2018-05-29T10:43:02.747Z,101358.36
2018-05-29T10:45:31.056Z,101361.59
2018-05-29T10:47:59.388Z,101356.78
2018-05-29T10:50:28.090Z,101354.04
2018-05-29T10:52:56.476Z,101354.63
2018-05-29T10:55:25.652Z,101348.09
2018-05-29T10:57:53.961Z,101352.06
2018-05-29T11:00:22.778Z,101350.82
2018-05-29T11:02:51.234Z,101342.63
2018-05-29T11:05:20.415Z,101343.44
2018-05-29T11:07:49.257Z,101343.88
2018-05-29T11:10:17.590Z,101331.77
2018-05-29T11:12:46.818Z,101325.05
2018-05-29T11:15:15.362Z,101326.20
2018-05-29T11:17:44.496Z,101323.04
2018-05-29T11:20:12.807Z,101321.20
2018-05-29T11:22:42.617Z,101326.90
2018-05-29T11:25:10.918Z,101320.97
2018-05-29T11:27:40.362Z,101313.12
2018-05-29T11:30:08.879Z,101307.78
2018-05-29T11:32:37.756Z,101315.03
2018-05-29T11:35:06.247Z,101319.50
2018-05-29T11:37:34.540Z,101306.02
2018-05-29T11:40:03.591Z,101309.33
2018-05-29T11:42:31.934Z,101319.75
2018-05-29T11:45:00.264Z,101312.00
2018-05-29T11:47:29.262Z,101297.42
2018-05-29T11:49:57.579Z,101295.34
2018-05-29T11:52:27.035Z,101288.47
2018-05-29T11:54:55.720Z,101292.70
2018-05-29T11:57:24.389Z,101280.30
2018-05-29T11:59:52.681Z,101284.49
2018-05-29T12:02:21.297Z,101275.35
2018-05-29T12:04:50.071Z,101274.11
2018-05-29T12:07:19.275Z,101273.68
2018-05-29T12:09:47.738Z,101263.09
2018-05-29T12:12:27.068Z,101269.56
2018-05-29T12:14:55.394Z,101261.73
2018-05-29T12:17:24.559Z,101260.30
2018-05-29T12:19:53.588Z,101250.23
2018-05-29T12:22:23.611Z,101252.38
2018-05-29T12:24:53.109Z,101239.30
2018-05-29T12:27:21.456Z,101236.54
2018-05-29T12:29:50.639Z,101237.31
2018-05-29T12:32:19.739Z,101233.80
2018-05-29T12:34:48.960Z,101226.95
2018-05-29T12:37:17.342Z,101229.55
2018-05-29T12:39:47.202Z,101223.30
2018-05-29T12:42:16.535Z,101225.42
2018-05-29T12:44:45.087Z,101227.64
2018-05-29T12:47:13.377Z,101214.03
2018-05-29T12:49:42.003Z,101217.20
2018-05-29T12:52:10.743Z,101213.83
2018-05-29T12:54:39.780Z,101212.90
2018-05-29T12:57:08.276Z,101215.23
2018-05-29T12:59:36.981Z,101207.05
2018-05-29T13:02:05.304Z,101196.17
2018-05-29T13:04:33.622Z,101203.27
2018-05-29T13:07:02.738Z,101188.94
2018-05-29T13:09:31.784Z,101193.61
2018-05-29T13:12:00.113Z,101198.52
2018-05-29T13:14:29.998Z,101205.30
2018-05-29T13:16:58.331Z,101191.62
2018-05-29T13:19:26.662Z,101205.59
2018-05-29T13:21:54.962Z,101187.73
2018-05-29T13:24:24.490Z,101193.64
2018-05-29T13:26:53.648Z,101186.73
2018-05-29T13:29:21.955Z,101194.35
2018-05-29T13:31:52.380Z,101179.79
2018-05-29T13:34:21.546Z,101187.97
2018-05-29T13:36:50.697Z,101181.60
2018-05-29T13:39:19.023Z,101183.78
2018-05-29T13:41:47.984Z,101178.68
2018-05-29T13:44:16.348Z,101159.59
2018-05-29T13:46:45.115Z,101176.44
2018-05-29T13:49:13.917Z,101164.66
2018-05-29T13:51:42.197Z,101158.58
2018-05-29T13:54:11.640Z,101166.59
2018-05-29T13:56:40.354Z,101162.69
2018-05-29T13:59:09.626Z,101150.31
2018-05-29T14:01:37.995Z,101157.92
2018-05-29T14:04:06.374Z,101153.55
2018-05-29T14:06:34.706Z,101149.01
2018-05-29T14:09:03.088Z,101149.48
2018-05-29T14:11:31.995Z,101149.51
2018-05-29T14:14:01.978Z,101144.42
2018-05-29T14:16:31.226Z,101148.63
2018-05-29T14:19:01.122Z,101136.75
2018-05-29T14:21:30.915Z,101130.45
2018-05-29T14:23:59.701Z,101136.27
2018-05-29T14:26:27.980Z,101127.80
2018-05-29T14:28:56.594Z,101121.95
2018-05-29T14:31:25.685Z,101124.21
2018-05-29T14:33:56.298Z,101126.84
2018-05-29T14:36:24.588Z,101126.00
2018-05-29T14:38:53.928Z,101123.66
2018-05-29T14:41:22.219Z,101121.98
2018-05-29T14:43:50.527Z,101114.85
2018-05-29T14:46:19.181Z,101120.78
2018-05-29T14:48:47.488Z,101107.48
2018-05-29T14:51:17.031Z,101107.50
2018-05-29T14:53:47.016Z,101120.98
2018-05-29T14:56:16.061Z,101109.14
2018-05-29T14:58:45.226Z,101108.39
2018-05-29T15:01:15.343Z,101108.77
2018-05-29T15:03:43.840Z,101101.81
2018-05-29T15:06:15.737Z,101105.87
2018-05-29T15:08:44.618Z,101102.70
2018-05-29T15:11:13.103Z,101099.24
2018-05-29T15:13:42.150Z,101105.78
2018-05-29T15:16:10.510Z,101097.27
2018-05-29T15:18:38.879Z,101087.27
2018-05-29T15:21:07.902Z,101095.92
2018-05-29T15:23:36.222Z,101098.89
2018-05-29T15:26:06.081Z,101091.45
2018-05-29T15:28:34.385Z,101085.27
2018-05-29T15:31:03.352Z,101078.73
2018-05-29T15:33:31.686Z,101081.58
2018-05-29T15:36:01.632Z,101082.23
2018-05-29T15:38:30.438Z,101073.42
2018-05-29T15:40:59.362Z,101075.92
2018-05-29T15:43:27.660Z,101065.52
2018-05-29T15:45:56.810Z,101071.16
2018-05-29T15:48:25.109Z,101065.43
2018-05-29T15:50:53.467Z,101064.63
2018-05-29T15:53:22.637Z,101061.20
2018-05-29T15:55:51.685Z,101065.69
2018-05-29T15:58:20.027Z,101062.44
2018-05-29T16:00:48.846Z,101057.17
2018-05-29T16:03:17.130Z,101059.15
2018-05-29T16:05:45.563Z,101062.70
2018-05-29T16:08:13.849Z,101054.16
2018-05-29T16:10:42.134Z,101051.91
2018-05-29T16:13:10.447Z,101050.75
2018-05-29T16:15:38.906Z,101044.91
2018-05-29T16:18:07.205Z,101044.42
2018-05-29T16:20:35.529Z,101052.43
2018-05-29T16:23:03.830Z,101043.48
2018-05-29T16:25:32.117Z,101036.70
2018-05-29T16:28:00.490Z,101037.67
2018-05-29T16:30:28.884Z,101028.66
2018-05-29T16:32:57.178Z,101023.59
2018-05-29T16:35:25.568Z,101035.11
2018-05-29T16:37:53.922Z,101028.25
2018-05-29T16:40:22.219Z,101030.06
2018-05-29T16:42:50.583Z,101023.41
2018-05-29T16:45:18.968Z,101029.33
2018-05-29T16:47:47.340Z,101028.95
2018-05-29T16:50:16.505Z,101028.45
2018-05-29T16:52:44.852Z,101036.87
2018-05-29T16:55:14.157Z,101034.52
2018-05-29T16:57:43.229Z,101039.19
2018-05-29T17:00:12.207Z,101029.38
2018-05-29T17:02:40.712Z,101030.80
2018-05-29T17:05:09.842Z,101031.16
2018-05-29T17:07:38.450Z,101029.89
2018-05-29T17:10:06.752Z,101038.19
2018-05-29T17:12:35.059Z,101040.30
2018-05-29T17:15:04.160Z,101045.62
2018-05-29T17:17:32.472Z,101047.95
2018-05-29T17:20:01.849Z,101049.36
2018-05-29T17:22:31.005Z,101036.92
2018-05-29T17:24:59.534Z,101043.06
2018-05-29T17:27:28.628Z,101038.83
2018-05-29T17:29:57.766Z,101043.77
2018-05-29T17:32:26.059Z,101051.44
2018-05-29T17:34:54.363Z,101059.92
2018-05-29T17:37:22.711Z,101058.85
2018-05-29T17:39:51.027Z,101067.48
2018-05-29T17:42:20.916Z,101069.31
2018-05-29T17:44:49.390Z,101069.25
2018-05-29T17:47:18.106Z,101066.31
2018-05-29T17:49:46.412Z,101071.66
2018-05-29T17:52:17.170Z,101072.91
2018-05-29T17:54:46.854Z,101074.56
2018-05-29T17:57:16.681Z,101072.98
2018-05-29T17:59:45.290Z,101072.56
2018-05-29T18:02:14.840Z,101069.17
2018-05-29T18:04:44.138Z,101069.08
2018-05-29T18:07:13.745Z,101069.55
2018-05-29T18:09:42.032Z,101065.08
2018-05-29T18:12:11.402Z,101069.58
2018-05-29T18:14:39.858Z,101068.59
2018-05-29T18:17:08.378Z,101075.95
2018-05-29T18:19:36.783Z,101074.05
2018-05-29T18:22:05.842Z,101074.77
2018-05-29T18:24:34.254Z,101085.70
2018-05-29T18:27:02.617Z,101089.09
2018-05-29T18:29:30.913Z,101090.16
2018-05-29T18:31:59.598Z,101095.25
2018-05-29T18:34:28.368Z,101094.93
2018-05-29T18:36:56.667Z,101094.59
2018-05-29T18:39:26.015Z,101102.38
2018-05-29T18:41:54.363Z,101106.89
2018-05-29T18:44:23.777Z,101105.59
2018-05-29T18:46:53.542Z,101115.78
2018-05-29T18:49:22.432Z,101121.14
2018-05-29T18:51:50.821Z,101115.48
2018-05-29T18:54:19.497Z,101114.72
2018-05-29T18:56:47.888Z,101116.55
2018-05-29T18:59:17.049Z,101118.00
2018-05-29T19:01:45.355Z,101115.16
2018-05-29T19:04:14.206Z,101113.91
2018-05-29T19:06:42.537Z,101120.77
2018-05-29T19:09:11.654Z,101127.40
2018-05-29T19:11:40.734Z,101118.25
2018-05-29T19:14:09.103Z,101126.27
2018-05-29T19:16:38.045Z,101128.72
2018-05-29T19:19:06.517Z,101135.52
2018-05-29T19:21:35.624Z,101127.80
2018-05-29T19:24:03.891Z,101135.88
2018-05-29T19:26:32.961Z,101136.08
2018-05-29T19:29:01.739Z,101133.95
2018-05-29T19:31:30.426Z,101132.16
2018-05-29T19:33:58.721Z,101133.56
2018-05-29T19:36:27.079Z,101134.33
2018-05-29T19:38:55.784Z,101128.98
2018-05-29T19:41:24.610Z,101140.20
2018-05-29T19:43:53.700Z,101135.88
2018-05-29T19:46:22.788Z,101138.89
2018-05-29T19:48:51.864Z,101142.64
2018-05-29T19:51:20.359Z,101137.95
2018-05-29T19:53:48.667Z,101138.64
2018-05-29T19:56:16.996Z,101141.70
2018-05-29T19:58:46.813Z,101138.83
2018-05-29T20:01:15.425Z,101140.92
2018-05-29T20:03:43.861Z,101145.50
2018-05-29T20:06:12.661Z,101141.30
2018-05-29T20:08:41.461Z,101142.05
2018-05-29T20:11:09.785Z,101149.45
2018-05-29T20:13:38.129Z,101151.55
2018-05-29T20:16:06.728Z,101148.23
2018-05-29T20:18:35.806Z,101140.92
2018-05-29T20:21:04.114Z,101141.27
2018-05-29T20:23:32.913Z,101134.92
2018-05-29T20:26:01.204Z,101139.23
2018-05-29T20:28:29.623Z,101140.11
2018-05-29T20:30:57.986Z,101135.73
2018-05-29T20:33:26.796Z,101139.78
2018-05-29T20:35:55.121Z,101132.45
2018-05-29T20:38:23.688Z,101134.05
2018-05-29T20:40:52.794Z,101130.77
2018-05-29T20:43:21.131Z,101135.36
2018-05-29T20:48:48.073Z,101130.99
2018-05-29T20:51:16.357Z,101136.73
2018-05-29T20:53:44.661Z,101133.02
2018-05-29T20:56:13.543Z,101136.80
2018-05-29T20:58:41.998Z,101142.82
2018-05-29T21:01:10.293Z,101129.37
2018-05-29T21:03:38.628Z,101132.48
2018-05-29T21:06:06.921Z,101145.91
2018-05-29T21:08:35.619Z,101143.66
2018-05-29T21:11:04.023Z,101148.97
2018-05-29T21:13:32.778Z,101150.65
2018-05-29T21:16:01.626Z,101148.23
2018-05-29T21:18:29.954Z,101159.45
2018-05-29T21:20:58.249Z,101158.69
2018-05-29T21:23:26.583Z,101160.39
2018-05-29T21:25:56.476Z,101154.03
2018-05-29T21:28:24.825Z,101157.91
2018-05-29T21:30:53.315Z,101159.37
2018-05-29T21:33:21.751Z,101159.04
2018-05-29T21:35:50.061Z,101159.02
2018-05-29T21:38:18.394Z,101167.00
2018-05-29T21:40:47.578Z,101165.63
2018-05-29T21:43:16.496Z,101163.33
2018-05-29T21:45:45.105Z,101157.01
2018-05-29T21:48:13.533Z,101154.16
2018-05-29T21:50:41.845Z,101155.27
2018-05-29T21:53:11.149Z,101151.91
2018-05-29T21:55:40.034Z,101144.35
2018-05-29T21:58:08.989Z,101139.48
2018-05-29T22:00:38.080Z,101137.38
2018-05-29T22:03:06.402Z,101141.39
2018-05-29T22:05:35.572Z,101134.57
2018-05-29T22:08:03.909Z,101133.34
2018-05-29T22:10:33.144Z,101130.48
2018-05-29T22:13:01.850Z,101138.04
2018-05-29T22:15:31.869Z,101133.98
2018-05-29T22:18:00.978Z,101138.89
2018-05-29T22:20:30.123Z,101140.02
2018-05-29T22:22:58.723Z,101151.05
2018-05-29T22:25:28.654Z,101148.38
2018-05-29T22:27:58.467Z,101152.07
2018-05-29T22:30:26.883Z,101153.42
2018-05-29T22:32:55.250Z,101154.70
2018-05-29T22:35:24.316Z,101161.56
2018-05-29T22:37:54.202Z,101166.98
2018-05-29T22:40:22.531Z,101167.62
2018-05-29T22:42:51.619Z,101161.98
2018-05-29T22:45:20.327Z,101162.37
2018-05-29T22:47:49.653Z,101155.06
2018-05-29T22:50:17.978Z,101147.34
2018-05-29T22:52:47.777Z,101149.18
2018-05-29T22:55:16.094Z,101151.31
2018-05-29T22:57:45.310Z,101143.80
2018-05-29T23:00:15.518Z,101149.70
2018-05-29T23:02:44.591Z,101162.27
2018-05-29T23:05:14.386Z,101166.82
2018-05-29T23:07:42.735Z,101170.48
2018-05-29T23:10:11.100Z,101176.61
2018-05-29T23:12:39.431Z,101169.28
2018-05-29T23:15:08.218Z,101173.56
2018-05-29T23:17:37.358Z,101167.48
2018-05-29T23:20:06.450Z,101159.19
2018-05-29T23:22:35.586Z,101156.59
2018-05-29T23:25:03.903Z,101156.09
2018-05-29T23:27:32.228Z,101147.38
2018-05-29T23:30:00.780Z,101150.67
2018-05-29T23:32:30.406Z,101159.59
2018-05-29T23:34:59.499Z,101149.39
2018-05-29T23:37:27.909Z,101153.44
2018-05-29T23:39:57.935Z,101154.72
2018-05-29T23:42:26.238Z,101149.41
2018-05-29T23:44:54.592Z,101146.70
2018-05-29T23:47:22.958Z,101152.02
2018-05-29T23:49:54.614Z,101147.23
2018-05-29T23:52:22.899Z,101152.95
2018-05-29T23:54:51.200Z,101151.84
2018-05-29T23:57:19.707Z,101155.36
2018-05-29T23:59:48.035Z,101148.47
